createdAt,value
2022-08-02T00:00:09.681Z,101209.61
2022-08-02T00:05:15.468Z,101196.47
2022-08-02T00:10:21.121Z,101203.11
2022-08-02T00:15:27.451Z,101202.73
2022-08-02T00:20:33.014Z,101203.95
2022-08-02T00:25:55.525Z,101208.89
2022-08-02T00:30:45.790Z,101209.99
2022-08-02T00:35:51.443Z,101214.41
2022-08-02T00:40:58.250Z,101218.58
2022-08-02T00:46:04.186Z,101215.15
2022-08-02T00:51:10.086Z,101218.09
2022-08-02T00:56:15.961Z,101224.06
2022-08-02T01:01:23.409Z,101218.80
2022-08-02T01:06:30.686Z,101225.32
2022-08-02T01:11:37.873Z,101223.83
2022-08-02T01:16:46.451Z,101236.09
2022-08-02T01:22:03.319Z,101248.49
2022-08-02T01:27:27.200Z,101244.30
2022-08-02T01:32:44.275Z,101245.64
2022-08-02T01:38:02.192Z,101237.51
2022-08-02T01:43:12.256Z,101240.33
2022-08-02T01:48:20.111Z,101231.25
2022-08-02T01:53:28.461Z,101238.12
2022-08-02T01:58:37.075Z,101228.03
2022-08-02T02:03:43.565Z,101232.20
2022-08-02T02:08:51.791Z,101235.88
2022-08-02T02:13:59.831Z,101242.11
2022-08-02T02:19:07.311Z,101233.89
2022-08-02T02:24:13.810Z,101244.78
2022-08-02T02:29:23.058Z,101245.01
2022-08-02T02:34:31.704Z,101246.20
2022-08-02T02:39:40.016Z,101254.05
2022-08-02T02:44:47.965Z,101253.63
2022-08-02T02:49:55.049Z,101266.98
2022-08-02T02:55:03.283Z,101259.84
2022-08-02T03:00:12.424Z,101250.88
2022-08-02T03:05:18.089Z,101257.48
2022-08-02T03:10:23.653Z,101259.05
2022-08-02T03:15:31.367Z,101258.56
2022-08-02T03:20:37.056Z,101264.18
2022-08-02T03:25:43.523Z,101266.73
2022-08-02T03:30:49.398Z,101271.69
2022-08-02T03:35:57.762Z,101265.91
2022-08-02T03:41:05.677Z,101268.98
2022-08-02T03:46:12.876Z,101272.06
2022-08-02T03:51:19.135Z,101276.11
2022-08-02T03:56:25.203Z,101276.86
2022-08-02T04:01:30.942Z,101275.94
2022-08-02T04:06:39.885Z,101277.19
2022-08-02T04:11:44.146Z,101279.44
2022-08-02T04:16:59.034Z,101288.56
2022-08-02T04:22:07.517Z,101292.61
2022-08-02T04:27:49.857Z,101302.44
2022-08-02T04:32:23.108Z,101312.50
2022-08-02T04:37:29.286Z,101314.42
2022-08-02T04:42:34.848Z,101313.42
2022-08-02T04:48:02.627Z,101310.52
2022-08-02T04:52:47.925Z,101311.59
2022-08-02T04:57:56.461Z,101308.58
2022-08-02T05:03:02.335Z,101314.06
2022-08-02T05:08:08.096Z,101317.14
2022-08-02T05:13:13.876Z,101313.31
2022-08-02T05:18:19.850Z,101318.03
2022-08-02T05:23:25.535Z,101324.92
2022-08-02T05:28:31.101Z,101331.33
2022-08-02T05:33:37.588Z,101331.34
2022-08-02T05:38:43.227Z,101339.31
2022-08-02T05:43:50.459Z,101347.17
2022-08-02T05:48:56.077Z,101352.97
2022-08-02T05:54:10.568Z,101361.06
2022-08-02T05:59:47.778Z,101357.56
2022-08-02T06:05:08.397Z,101358.02
2022-08-02T06:10:17.136Z,101368.44
2022-08-02T06:15:22.581Z,101371.58
2022-08-02T06:20:32.313Z,101371.11
2022-08-02T06:25:50.529Z,101375.89
2022-08-02T06:30:46.819Z,101378.57
2022-08-02T06:36:16.918Z,101377.55
2022-08-02T06:41:26.367Z,101380.20
2022-08-02T06:47:08.346Z,101380.60
2022-08-02T06:51:39.768Z,101384.53
2022-08-02T06:56:46.941Z,101386.96
2022-08-02T07:01:54.602Z,101381.61
2022-08-02T07:07:00.220Z,101384.56
2022-08-02T07:12:06.663Z,101376.63
2022-08-02T07:17:12.670Z,101378.07
2022-08-02T07:22:19.988Z,101375.33
2022-08-02T07:27:26.383Z,101374.16
2022-08-02T07:32:33.992Z,101375.75
2022-08-02T07:37:53.814Z,101376.75
2022-08-02T07:42:47.572Z,101378.80
2022-08-02T07:47:54.173Z,101369.00
2022-08-02T07:52:59.722Z,101366.91
2022-08-02T07:58:06.221Z,101362.33
2022-08-02T08:03:13.738Z,101360.77
2022-08-02T08:08:19.297Z,101363.11
2022-08-02T08:13:24.848Z,101349.35
2022-08-02T08:18:30.926Z,101352.28
2022-08-02T08:23:36.675Z,101354.09
2022-08-02T08:28:42.122Z,101346.61
2022-08-02T08:33:48.239Z,101352.67
2022-08-02T08:38:54.312Z,101356.77
2022-08-02T08:44:00.393Z,101350.62
2022-08-02T08:49:24.010Z,101348.53
2022-08-02T08:54:31.385Z,101362.48
2022-08-02T08:59:39.187Z,101360.70
2022-08-02T09:04:49.332Z,101350.31
2022-08-02T09:09:52.781Z,101370.88
2022-08-02T09:14:58.446Z,101365.48
2022-08-02T09:20:10.702Z,101365.06
2022-08-02T09:25:19.420Z,101363.77
2022-08-02T09:30:26.445Z,101374.73
2022-08-02T09:36:06.028Z,101355.46
2022-08-02T09:40:45.212Z,101341.75
2022-08-02T09:45:56.260Z,101345.52
2022-08-02T09:51:02.082Z,101333.52
2022-08-02T09:56:29.610Z,101355.92
2022-08-02T10:01:16.351Z,101354.91
2022-08-02T10:06:22.357Z,101326.14
2022-08-02T10:11:29.505Z,101329.79
2022-08-02T10:16:37.929Z,101321.39
2022-08-02T10:21:55.815Z,101314.84
2022-08-02T10:27:02.710Z,101308.61
2022-08-02T10:32:14.354Z,101313.12
2022-08-02T10:37:24.157Z,101297.66
2022-08-02T10:42:50.668Z,101299.23
2022-08-02T10:48:04.736Z,101301.15
2022-08-02T10:53:28.319Z,101307.61
2022-08-02T10:58:35.662Z,101301.33
2022-08-02T11:03:43.954Z,101292.62
2022-08-02T11:08:49.514Z,101284.13
2022-08-02T11:14:07.973Z,101296.59
2022-08-02T11:19:13.650Z,101284.08
2022-08-02T11:24:36.731Z,101294.98
2022-08-02T11:29:44.475Z,101270.03
2022-08-02T11:34:52.357Z,101273.13
2022-08-02T11:39:58.235Z,101266.50
2022-08-02T11:45:05.136Z,101265.98
2022-08-02T11:50:11.983Z,101246.64
2022-08-02T11:55:17.998Z,101237.55
2022-08-02T12:00:23.487Z,101243.66
2022-08-02T12:06:05.617Z,101246.06
2022-08-02T12:10:42.477Z,101252.73
2022-08-02T12:15:48.884Z,101251.98
2022-08-02T12:20:54.473Z,101248.34
2022-08-02T12:26:07.440Z,101249.23
2022-08-02T12:31:14.352Z,101247.34
2022-08-02T12:36:27.983Z,101244.42
2022-08-02T12:41:33.791Z,101230.22
2022-08-02T12:46:42.089Z,101229.74
2022-08-02T12:51:51.261Z,101223.08
2022-08-02T12:56:56.196Z,101219.17
2022-08-02T13:02:06.890Z,101218.96
2022-08-02T13:07:12.762Z,101225.31
2022-08-02T13:12:18.573Z,101229.55
2022-08-02T13:17:24.411Z,101232.00
2022-08-02T13:22:30.078Z,101226.23
2022-08-02T13:27:38.219Z,101216.68
2022-08-02T13:32:44.054Z,101206.37
2022-08-02T13:37:49.642Z,101210.31
2022-08-02T13:42:55.409Z,101206.02
2022-08-02T13:48:05.034Z,101199.78
2022-08-02T13:53:08.196Z,101198.96
2022-08-02T13:58:14.291Z,101181.75
2022-08-02T14:03:19.824Z,101173.88
2022-08-02T14:08:25.393Z,101169.24
2022-08-02T14:13:36.043Z,101166.11
2022-08-02T14:18:38.952Z,101164.59
2022-08-02T14:23:50.000Z,101153.84
2022-08-02T14:28:51.765Z,101138.17
2022-08-02T14:33:57.605Z,101145.59
2022-08-02T14:39:03.171Z,101147.34
2022-08-02T14:44:08.741Z,101147.02
2022-08-02T14:49:16.108Z,101137.77
2022-08-02T14:54:28.054Z,101134.82
2022-08-02T14:59:29.687Z,101134.92
2022-08-02T15:04:42.553Z,101134.76
2022-08-02T15:09:42.614Z,101130.31
2022-08-02T15:14:48.369Z,101122.84
2022-08-02T15:19:57.651Z,101119.88
2022-08-02T15:25:01.648Z,101125.10
2022-08-02T15:30:09.062Z,101125.22
2022-08-02T15:35:16.259Z,101118.69
2022-08-02T15:40:22.861Z,101120.80
2022-08-02T15:45:28.777Z,101113.08
2022-08-02T15:50:34.497Z,101124.30
2022-08-02T15:56:04.458Z,101116.50
2022-08-02T16:00:47.467Z,101115.23
2022-08-02T16:05:53.033Z,101111.34
2022-08-02T16:10:58.613Z,101118.59
2022-08-02T16:16:04.263Z,101115.70
2022-08-02T16:21:09.938Z,101111.39
2022-08-02T16:26:15.697Z,101118.47
2022-08-02T16:31:21.279Z,101113.66
2022-08-02T16:36:28.265Z,101113.02
2022-08-02T16:41:51.701Z,101107.00
2022-08-02T16:46:41.158Z,101107.85
2022-08-02T16:51:48.533Z,101104.07
2022-08-02T16:56:54.666Z,101095.33
2022-08-02T17:02:12.014Z,101103.16
2022-08-02T17:07:11.158Z,101095.99
2022-08-02T17:12:16.019Z,101100.34
2022-08-02T17:17:22.099Z,101099.77
2022-08-02T17:22:29.504Z,101108.91
2022-08-02T17:27:34.956Z,101103.11
2022-08-02T17:32:45.587Z,101109.16
2022-08-02T17:37:54.558Z,101105.23
2022-08-02T17:42:57.411Z,101106.20
2022-08-02T17:48:04.613Z,101107.09
2022-08-02T17:53:10.162Z,101115.48
2022-08-02T17:58:17.468Z,101110.61
2022-08-02T18:03:23.033Z,101117.52
2022-08-02T18:08:29.614Z,101117.43
2022-08-02T18:13:37.305Z,101112.19
2022-08-02T18:18:45.225Z,101117.97
2022-08-02T18:23:58.873Z,101131.63
2022-08-02T18:29:02.110Z,101130.56
2022-08-02T18:34:08.410Z,101134.09
2022-08-02T18:39:13.958Z,101140.16
2022-08-02T18:44:19.934Z,101136.51
2022-08-02T18:49:30.046Z,101144.95
2022-08-02T18:54:34.333Z,101142.22
2022-08-02T18:59:41.234Z,101136.09
2022-08-02T19:04:47.825Z,101145.68
2022-08-02T19:09:53.491Z,101143.78
2022-08-02T19:15:00.298Z,101153.84
2022-08-02T19:20:07.976Z,101143.37
2022-08-02T19:30:25.853Z,101150.48
2022-08-02T19:35:34.630Z,101151.06
2022-08-02T19:40:44.863Z,101153.47
2022-08-02T19:45:51.688Z,101154.55
2022-08-02T19:50:59.473Z,101148.08
2022-08-02T19:56:05.616Z,101150.38
2022-08-02T20:01:14.156Z,101147.21
2022-08-02T20:06:18.989Z,101147.97
2022-08-02T20:11:24.946Z,101143.23
2022-08-02T20:16:32.917Z,101153.67
2022-08-02T20:21:42.717Z,101152.54
2022-08-02T20:26:47.235Z,101148.67
2022-08-02T20:31:52.629Z,101145.59
2022-08-02T20:36:58.202Z,101149.44
2022-08-02T20:42:14.899Z,101145.96
2022-08-02T20:47:10.864Z,101153.39
2022-08-02T20:52:23.273Z,101155.02
2022-08-02T20:57:48.448Z,101148.50
2022-08-02T21:02:31.687Z,101140.66
2022-08-02T21:07:37.413Z,101144.40
2022-08-02T21:12:45.348Z,101138.31
2022-08-02T21:17:52.928Z,101136.53
2022-08-02T21:22:58.714Z,101141.23
2022-08-02T21:28:04.315Z,101143.75
2022-08-02T21:33:23.231Z,101144.70
2022-08-02T21:38:36.146Z,101148.09
2022-08-02T21:43:35.199Z,101151.14
2022-08-02T21:48:31.928Z,101144.63
2022-08-02T21:53:42.474Z,101148.16
2022-08-02T21:58:44.517Z,101154.77
2022-08-02T22:03:55.538Z,101152.70
2022-08-02T22:08:57.538Z,101162.73
2022-08-02T22:14:03.358Z,101163.53
2022-08-02T22:19:08.861Z,101161.67
2022-08-02T22:24:19.440Z,101159.80
2022-08-02T22:29:21.699Z,101165.91
2022-08-02T22:34:51.377Z,101165.02
2022-08-02T22:39:34.595Z,101168.81
2022-08-02T22:44:40.155Z,101172.69
2022-08-02T22:49:54.299Z,101172.84
2022-08-02T22:54:56.088Z,101176.06
2022-08-02T22:58:48.001Z,101148.13
2022-08-02T23:00:04.433Z,101178.22
2022-08-02T23:05:10.405Z,101177.93
2022-08-02T23:10:15.851Z,101177.93
2022-08-02T23:15:21.454Z,101179.80
2022-08-02T23:20:27.393Z,101170.41
2022-08-02T23:25:33.575Z,101173.78
2022-08-02T23:30:39.141Z,101168.98
2022-08-02T23:35:45.010Z,101170.50
2022-08-02T23:40:50.578Z,101161.77
2022-08-02T23:45:59.151Z,101162.48
2022-08-02T23:51:04.780Z,101160.76
2022-08-02T23:56:10.447Z,101162.27
